Palos Verdes Peninsula, CA

4:14 PM PST on December 19, 2014 (GMT -0800)
1/2 Mile S/W of RHE City Hall | Change Station
CLOSE
Current Station
Personal Weather Station
Location: Rolling Hills Estates, CA
Elevation: 600 ft
Nearby Weather Stations
Active Advisory: High Surf Advisory

Elev 600 ft 33.78 °N, 118.36 °W | Updated 26 seconds ago

Mostly Cloudy
Mostly Cloudy
58.7 °F
Feels Like 58.7 °F
N
0.0
Wind Variable Wind from West
Gusts 0.0 mph

Today
High -- | Low -- °F
--% Chance of Precip.
Yesterday
High -- | Low -- °F
Precip. -- in
6:53 AM 4:47 PM
Waning Crescent, 5% visible
Pressure 30.15 in
Visibility 10.0 miles
Clouds Scattered Clouds 8000 ft
Mostly Cloudy 20000 ft
Dew Point 50 °F
Humidity 74%
Rainfall 0.00 in
Snow Depth Not available.
UV 0 out of 12
Pollen 3.80 out of 12
Air Quality Not available.
Flu Activity Not available.
METAR KTOA 192350Z 28010KT 10SM SCT080 BKN200 17/11 A3015

More Conditions Fewer Conditions

Pressure 30.15 in
Visibility 10.0 miles
Clouds Scattered Clouds 8000 ft
Mostly Cloudy 20000 ft
Dew Point 50 °F
Humidity 74%
Rainfall 0.00 in
Snow Depth Not available.
UV 0 out of 12
Pollen 3.80 out of 12
Air Quality Not available.
Flu Activity Not available.
METAR KTOA 192350Z 28010KT 10SM SCT080 BKN200 17/11 A3015

More Conditions Fewer Conditions

10-Day Weather Forecast

Almanac

Astronomy

Dec. 19, 2014 Rise Set
Actual Time
Civil Twilight
Nautical Twilight
Astronomical Twilight
Moon
Length of Visible Light
Length of Day
Tomorrow will be .
, % of the Moon is Illuminated

Today's Extremes

State Highs State Lows

Community

WunderPhotos

Upload Photos

1,779,084 photos uploaded!

WunderBlogs® & News

Nearby

Air Quality

  Air Quality AQ Index Pollutant
Not available.

Snow Depth

Station Depth Elevation

Earthquake Activity

City Distance Mag. Time & Date
Minimum magnitude displayed is 2.5.

Coastal Water Temperatures

Place Temperature

Nearby Weather Stations